Time;durP1;ratioP1;P1;durP2;ratioP2;P2;SDS_P1;SDS_P2;PMS_P1;PMS_P2;Temp;Humidity;BMP_temperature;BMP_pressure;BME280_temperature;BME280_humidity;BME280_pressure;Samples;Min_cycle;Max_cycle;Signal;HPM_P1;HPM_P2
2024/04/18 19:57:44;;;;;;;;;4.75;2.00;;;;;;;;5608492;25;12967;-75
2024/04/18 20:00:10;;;;;;;;;2.00;2.00;;;;;;;;5577083;25;11732;-75
2024/04/18 20:02:43;;;;;;;;;1.00;1.00;;;;;;;;5543706;25;12281;-74
2024/04/18 20:05:08;;;;;;;;;3.25;3.25;;;;;;;;5530045;25;8803;-74
2024/04/18 20:07:35;;;;;;;;;3.50;3.00;;;;;;;;5537773;25;11565;-77
2024/04/18 20:10:00;;;;;;;;;2.00;2.00;;;;;;;;5546626;25;8800;-75
2024/04/18 20:12:25;;;;;;;;;1.50;1.00;;;;;;;;5520565;25;11556;-75
2024/04/18 20:14:51;;;;;;;;;3.00;2.25;;;;;;;;5573820;25;8816;-78
2024/04/18 20:17:16;;;;;;;;;2.00;2.00;;;;;;;;5545397;25;8894;-76
2024/04/18 20:19:41;;;;;;;;;5.00;5.00;;;;;;;;5538905;25;8804;-79
2024/04/18 20:22:10;;;;;;;;;2.75;2.25;;;;;;;;5542126;25;9057;-79
2024/04/18 20:24:35;;;;;;;;;2.00;2.00;;;;;;;;5573274;25;8846;-83
2024/04/18 20:27:01;;;;;;;;;2.00;2.00;;;;;;;;5576720;25;11505;-81
2024/04/18 20:29:26;;;;;;;;;2.25;2.25;;;;;;;;5537041;25;8792;-79
2024/04/18 20:31:51;;;;;;;;;0.00;0.00;;;;;;;;5571700;25;8807;-77
2024/04/18 20:34:17;;;;;;;;;2.25;1.00;;;;;;;;5577617;25;8899;-77
2024/04/18 20:36:42;;;;;;;;;0.00;0.00;;;;;;;;5543962;25;8808;-78
2024/04/18 20:39:10;;;;;;;;;0.00;0.00;;;;;;;;5577313;25;9599;-78
2024/04/18 20:41:36;;;;;;;;;2.00;0.00;;;;;;;;5577018;25;8932;-78
2024/04/18 20:44:01;;;;;;;;;1.00;0.00;;;;;;;;5577571;25;11503;-76
2024/04/18 20:46:28;;;;;;;;;0.00;0.00;;;;;;;;5577866;25;8816;-78
2024/04/18 20:48:54;;;;;;;;;0.75;0.75;;;;;;;;5577814;25;8862;-76
2024/04/18 20:51:27;;;;;;;;;1.50;0.00;;;;;;;;5577947;25;11437;-77
2024/04/18 20:53:56;;;;;;;;;0.00;0.00;;;;;;;;5577575;25;8858;-77
2024/04/18 20:56:21;;;;;;;;;0.00;0.00;;;;;;;;5576812;25;11484;-78
2024/04/18 20:58:46;;;;;;;;;2.00;0.25;;;;;;;;5576748;25;11474;-77
2024/04/18 21:01:14;;;;;;;;;0.00;0.00;;;;;;;;5576958;25;8833;-76
2024/04/18 21:03:39;;;;;;;;;1.00;0.00;;;;;;;;5577132;25;9049;-77
2024/04/18 21:06:05;;;;;;;;;0.00;0.00;;;;;;;;5543729;25;11503;-77
2024/04/18 21:08:36;;;;;;;;;0.75;0.00;;;;;;;;5564257;25;8849;-77
2024/04/18 21:11:02;;;;;;;;;0.00;0.00;;;;;;;;5527501;25;8839;-77
2024/04/18 21:13:27;;;;;;;;;0.00;0.00;;;;;;;;5550997;25;11436;-77
2024/04/18 21:16:00;;;;;;;;;1.00;0.00;;;;;;;;5539516;25;8949;-77
2024/04/18 21:18:29;;;;;;;;;0.75;0.75;;;;;;;;5523485;26;8807;-77
2024/04/18 21:20:54;;;;;;;;;1.00;1.00;;;;;;;;5523250;26;11477;-77
2024/04/18 21:23:19;;;;;;;;;0.75;0.75;;;;;;;;5522977;26;12795;-77
2024/04/18 21:25:45;;;;;;;;;1.25;1.00;;;;;;;;5490454;26;8859;-77
2024/04/18 21:28:10;;;;;;;;;2.75;2.00;;;;;;;;5552245;25;8812;-76
2024/04/18 21:30:35;;;;;;;;;1.00;0.00;;;;;;;;5559345;25;8812;-71
2024/04/18 21:33:01;;;;;;;;;0.00;0.00;;;;;;;;5559293;25;9013;-72
2024/04/18 21:35:26;;;;;;;;;1.00;1.00;;;;;;;;5526379;25;8788;-71
2024/04/18 21:37:52;;;;;;;;;1.75;1.75;;;;;;;;5559461;25;8828;-71
2024/04/18 21:40:17;;;;;;;;;4.00;4.00;;;;;;;;5504075;25;11436;-73
2024/04/18 21:42:42;;;;;;;;;1.00;1.00;;;;;;;;5556144;25;8824;-75
2024/04/18 21:45:08;;;;;;;;;0.00;0.00;;;;;;;;5521702;25;8824;-75
2024/04/18 21:47:33;;;;;;;;;1.00;1.00;;;;;;;;5554745;25;8824;-73
2024/04/18 21:49:59;;;;;;;;;0.00;0.00;;;;;;;;5554202;25;8819;-74
2024/04/18 21:52:24;;;;;;;;;0.25;0.25;;;;;;;;5554332;25;8812;-74
2024/04/18 21:54:49;;;;;;;;;0.75;0.75;;;;;;;;5555878;25;8836;-74
2024/04/18 21:57:14;;;;;;;;;0.00;0.00;;;;;;;;5539324;25;8847;-74
2024/04/18 21:59:42;;;;;;;;;0.00;0.00;;;;;;;;5520370;25;8937;-73
2024/04/18 22:02:07;;;;;;;;;0.00;0.00;;;;;;;;5518698;26;9652;-73
2024/04/18 22:04:33;;;;;;;;;0.00;0.00;;;;;;;;5518525;26;11552;-73
2024/04/18 22:06:58;;;;;;;;;0.50;0.50;;;;;;;;5519341;25;8812;-73
2024/04/18 22:09:23;;;;;;;;;1.00;1.00;;;;;;;;5518348;26;8823;-73
2024/04/18 22:11:49;;;;;;;;;2.75;2.00;;;;;;;;5518650;26;8856;-73
2024/04/18 22:14:14;;;;;;;;;1.75;1.75;;;;;;;;5488205;26;9556;-72
2024/04/18 22:16:42;;;;;;;;;1.00;1.00;;;;;;;;5518164;26;8823;-72
2024/04/18 22:19:07;;;;;;;;;2.00;1.75;;;;;;;;5493986;25;8864;-73
2024/04/18 22:21:36;;;;;;;;;1.00;1.00;;;;;;;;5448340;26;11547;-73
2024/04/18 22:24:02;;;;;;;;;3.50;2.00;;;;;;;;5448589;26;8820;-72
2024/04/18 22:26:27;;;;;;;;;2.00;2.00;;;;;;;;5452189;26;12253;-72
2024/04/18 22:28:53;;;;;;;;;2.50;2.50;;;;;;;;5484597;26;11515;-73
2024/04/18 22:31:18;;;;;;;;;3.75;1.00;;;;;;;;5484459;26;8816;-73
2024/04/18 22:33:43;;;;;;;;;1.00;1.00;;;;;;;;5484186;26;9057;-73
2024/04/18 22:36:08;;;;;;;;;1.00;1.00;;;;;;;;5482305;26;8870;-73
2024/04/18 22:38:34;;;;;;;;;1.00;1.00;;;;;;;;5482738;26;8920;-73
2024/04/18 22:40:59;;;;;;;;;0.25;0.25;;;;;;;;5482547;26;8847;-73
2024/04/18 22:43:25;;;;;;;;;1.00;1.00;;;;;;;;5484780;26;8820;-73
2024/04/18 22:45:51;;;;;;;;;1.00;0.00;;;;;;;;5484303;26;8796;-73
2024/04/18 22:48:16;;;;;;;;;1.00;1.00;;;;;;;;5484406;26;8804;-73
2024/04/18 22:50:42;;;;;;;;;0.00;0.00;;;;;;;;5484424;26;8804;-73
2024/04/18 22:53:07;;;;;;;;;0.75;0.75;;;;;;;;5482152;26;8910;-73
2024/04/18 22:55:33;;;;;;;;;1.00;1.00;;;;;;;;5484240;26;11623;-73
2024/04/18 22:58:00;;;;;;;;;0.75;0.75;;;;;;;;5484073;26;8878;-73
2024/04/18 23:00:25;;;;;;;;;0.50;0.50;;;;;;;;5484095;26;8923;-73
2024/04/18 23:02:50;;;;;;;;;0.50;0.50;;;;;;;;5483611;26;11517;-73
2024/04/18 23:05:15;;;;;;;;;0.00;0.00;;;;;;;;5481808;26;9565;-73
2024/04/18 23:07:41;;;;;;;;;0.50;0.50;;;;;;;;5484006;26;8832;-73
2024/04/18 23:10:07;;;;;;;;;0.25;0.25;;;;;;;;5484330;26;9574;-71
2024/04/18 23:12:32;;;;;;;;;0.00;0.00;;;;;;;;5481884;26;8816;-72
2024/04/18 23:14:57;;;;;;;;;2.00;0.00;;;;;;;;5483809;26;11558;-73
2024/04/18 23:17:23;;;;;;;;;0.00;0.00;;;;;;;;5483542;26;8840;-73
2024/04/18 23:19:48;;;;;;;;;2.00;0.25;;;;;;;;5483712;26;8816;-73
2024/04/18 23:22:13;;;;;;;;;1.00;1.00;;;;;;;;5483584;26;8808;-73
2024/04/18 23:24:38;;;;;;;;;1.00;1.00;;;;;;;;5483752;26;8824;-74
2024/04/18 23:27:04;;;;;;;;;0.25;0.00;;;;;;;;5483148;26;8840;-73
2024/04/18 23:29:30;;;;;;;;;0.00;0.00;;;;;;;;5484216;26;8870;-73
2024/04/18 23:31:56;;;;;;;;;1.00;1.00;;;;;;;;5480515;26;8862;-75
2024/04/18 23:34:21;;;;;;;;;1.00;1.00;;;;;;;;5481123;26;11524;-74
2024/04/18 23:36:46;;;;;;;;;1.00;1.00;;;;;;;;5483391;26;8871;-73
2024/04/18 23:39:12;;;;;;;;;1.25;1.00;;;;;;;;5481387;26;9686;-73
2024/04/18 23:41:37;;;;;;;;;0.00;0.00;;;;;;;;5483076;26;8824;-73
2024/04/18 23:44:03;;;;;;;;;0.00;0.00;;;;;;;;5483202;26;9606;-73
2024/04/18 23:46:28;;;;;;;;;1.00;1.00;;;;;;;;5483330;26;8808;-73
2024/04/18 23:48:53;;;;;;;;;0.00;0.00;;;;;;;;5512197;26;8831;-74
2024/04/18 23:51:19;;;;;;;;;0.00;0.00;;;;;;;;5483617;26;8855;-74
2024/04/18 23:53:44;;;;;;;;;0.00;0.00;;;;;;;;5511740;26;8940;-74
2024/04/18 23:56:09;;;;;;;;;0.50;0.00;;;;;;;;5482861;26;9023;-74
2024/04/18 23:58:34;;;;;;;;;0.00;0.00;;;;;;;;5482759;26;8812;-73
